createdAt,value
2019-03-05T00:01:46.944Z,98662.59
2019-03-05T00:04:33.180Z,98657.52
2019-03-05T00:07:19.394Z,98653.50
2019-03-05T00:10:11.604Z,98657.58
2019-03-05T00:12:57.911Z,98662.16
2019-03-05T00:15:45.354Z,98658.06
2019-03-05T00:18:31.745Z,98656.12
2019-03-05T00:21:17.816Z,98665.36
2019-03-05T00:24:40.748Z,98661.17
2019-03-05T00:27:30.404Z,98665.00
2019-03-05T00:30:25.734Z,98664.80
2019-03-05T00:33:26.183Z,98666.49
2019-03-05T00:36:25.981Z,98672.28
2019-03-05T00:39:52.023Z,98681.25
2019-03-05T00:43:08.590Z,98678.00
2019-03-05T00:46:23.125Z,98682.94
2019-03-05T00:49:28.221Z,98688.70
2019-03-05T00:52:44.193Z,98689.87
2019-03-05T00:56:10.195Z,98699.22
2019-03-05T00:59:21.400Z,98699.51
2019-03-05T01:02:43.551Z,98705.67
2019-03-05T01:06:19.301Z,98705.50
2019-03-05T01:09:12.357Z,98701.88
2019-03-05T01:11:58.403Z,98715.34
2019-03-05T01:14:44.651Z,98711.48
2019-03-05T01:17:30.571Z,98727.70
2019-03-05T01:20:17.564Z,98726.45
2019-03-05T01:23:03.608Z,98736.86
2019-03-05T01:25:50.085Z,98734.49
2019-03-05T01:28:36.700Z,98735.66
2019-03-05T01:31:47.940Z,98733.41
2019-03-05T01:34:52.006Z,98743.61
2019-03-05T01:37:38.240Z,98757.94
2019-03-05T01:40:54.131Z,98743.28
2019-03-05T01:43:40.050Z,98746.65
2019-03-05T01:46:26.504Z,98738.91
2019-03-05T01:49:12.297Z,98749.34
2019-03-05T01:51:58.394Z,98756.70
2019-03-05T01:54:44.985Z,98764.72
2019-03-05T01:57:31.032Z,98758.28
2019-03-05T02:00:17.357Z,98753.43
2019-03-05T02:03:04.165Z,98759.39
2019-03-05T02:05:50.290Z,98762.14
2019-03-05T02:08:36.538Z,98767.84
2019-03-05T02:11:23.057Z,98759.34
2019-03-05T02:14:08.914Z,98768.63
2019-03-05T02:16:54.797Z,98759.28
2019-03-05T02:19:43.505Z,98769.13
2019-03-05T02:22:35.098Z,98766.14
2019-03-05T02:26:04.982Z,98763.28
2019-03-05T02:29:25.977Z,98771.43
2019-03-05T02:33:04.511Z,98769.09
2019-03-05T02:36:26.074Z,98771.88
2019-03-05T02:39:43.140Z,98771.41
2019-03-05T02:43:10.726Z,98763.30
2019-03-05T02:46:23.978Z,98767.74
2019-03-05T02:49:50.857Z,98771.08
2019-03-05T02:53:00.484Z,98769.33
2019-03-05T02:56:24.246Z,98763.80
2019-03-05T02:59:08.856Z,98760.05
2019-03-05T03:02:12.869Z,98772.39
2019-03-05T03:05:15.508Z,98780.22
2019-03-05T03:08:01.715Z,98774.08
2019-03-05T03:10:47.745Z,98773.29
2019-03-05T03:13:33.906Z,98773.88
2019-03-05T03:16:20.013Z,98777.66
2019-03-05T03:19:06.074Z,98789.95
2019-03-05T03:21:52.760Z,98827.05
2019-03-05T03:24:39.228Z,99014.75
2019-03-05T03:27:26.118Z,98853.37
2019-03-05T03:30:13.820Z,98853.37
2019-03-05T03:33:00.298Z,98829.09
2019-03-05T03:35:47.055Z,98821.42
2019-03-05T03:38:33.556Z,98826.09
2019-03-05T03:41:21.201Z,98817.56
2019-03-05T03:44:07.651Z,98820.00
2019-03-05T03:46:53.651Z,98825.63
2019-03-05T03:49:39.966Z,98827.73
2019-03-05T03:52:26.164Z,98829.38
2019-03-05T03:55:13.114Z,98822.60
2019-03-05T03:57:59.587Z,98837.91
2019-03-05T04:00:45.913Z,98845.98
2019-03-05T04:03:31.930Z,98840.34
2019-03-05T04:06:18.299Z,98838.55
2019-03-05T04:09:09.851Z,98844.50
2019-03-05T04:11:55.763Z,98840.52
2019-03-05T04:14:42.556Z,98851.61
2019-03-05T04:17:29.059Z,98842.24
2019-03-05T04:20:20.854Z,98849.45
2019-03-05T04:23:07.041Z,98855.09
2019-03-05T04:25:53.325Z,98847.33
2019-03-05T04:28:39.301Z,98849.84
2019-03-05T04:31:25.106Z,98849.75
2019-03-05T04:34:11.578Z,98848.58
2019-03-05T04:36:57.406Z,98855.28
2019-03-05T04:39:43.746Z,98847.49
2019-03-05T04:42:30.266Z,98853.33
2019-03-05T04:45:46.665Z,98845.25
2019-03-05T04:48:32.767Z,98852.89
2019-03-05T04:51:27.784Z,98857.87
2019-03-05T04:54:13.625Z,98853.70
2019-03-05T04:56:59.629Z,98861.19
2019-03-05T04:59:45.614Z,98858.48
2019-03-05T05:02:31.533Z,98864.98
2019-03-05T05:05:17.960Z,98861.03
2019-03-05T05:08:04.159Z,98872.44
2019-03-05T05:10:49.948Z,98869.42
2019-03-05T05:13:36.131Z,98870.66
2019-03-05T05:16:21.926Z,98867.32
2019-03-05T05:19:07.975Z,98865.06
2019-03-05T05:21:54.716Z,98868.53
2019-03-05T05:24:40.723Z,98868.09
2019-03-05T05:27:26.771Z,98868.50
2019-03-05T05:30:27.758Z,98872.76
2019-03-05T05:33:13.772Z,98878.33
2019-03-05T05:35:59.611Z,98864.67
2019-03-05T05:38:46.203Z,98874.47
2019-03-05T05:41:32.262Z,98876.03
2019-03-05T05:44:18.258Z,98877.01
2019-03-05T05:47:04.835Z,98873.87
2019-03-05T05:49:50.703Z,98873.48
2019-03-05T05:52:36.630Z,98874.83
2019-03-05T05:55:23.234Z,98869.75
2019-03-05T05:58:09.173Z,98869.68
2019-03-05T06:00:56.909Z,98861.65
2019-03-05T06:03:43.490Z,98861.98
2019-03-05T06:06:29.792Z,98860.88
2019-03-05T06:09:18.544Z,98863.45
2019-03-05T06:12:07.406Z,98869.75
2019-03-05T06:14:53.379Z,98878.14
2019-03-05T06:17:39.382Z,98874.28
2019-03-05T06:20:25.860Z,98886.28
2019-03-05T06:23:11.674Z,98881.37
2019-03-05T06:25:57.728Z,98879.03
2019-03-05T06:28:44.170Z,98886.23
2019-03-05T06:31:30.200Z,98878.56
2019-03-05T06:34:16.235Z,98886.17
2019-03-05T06:37:02.591Z,98887.45
2019-03-05T06:39:48.427Z,98891.61
2019-03-05T06:42:37.481Z,98894.80
2019-03-05T06:45:25.102Z,98890.75
2019-03-05T06:48:11.334Z,98891.95
2019-03-05T06:50:57.322Z,98891.41
2019-03-05T06:53:43.622Z,98893.69
2019-03-05T06:56:31.230Z,98890.64
2019-03-05T06:59:18.347Z,98891.89
2019-03-05T07:02:06.007Z,98889.38
2019-03-05T07:04:57.731Z,98888.34
2019-03-05T07:07:44.427Z,98895.69
2019-03-05T07:11:11.520Z,98897.66
2019-03-05T07:13:58.979Z,98910.63
2019-03-05T07:17:14.463Z,98904.58
2019-03-05T07:20:30.433Z,98918.78
2019-03-05T07:24:01.041Z,98910.11
2019-03-05T07:26:47.190Z,98911.87
2019-03-05T07:29:33.258Z,98916.01
2019-03-05T07:32:36.283Z,98919.53
2019-03-05T07:35:25.731Z,98925.66
2019-03-05T07:38:12.124Z,98930.77
2019-03-05T07:41:00.459Z,98938.00
2019-03-05T07:43:47.438Z,98949.65
2019-03-05T07:46:35.744Z,98956.02
2019-03-05T07:49:21.867Z,98955.56
2019-03-05T07:52:07.879Z,98957.59
2019-03-05T07:54:53.932Z,98959.19
2019-03-05T07:57:40.080Z,98968.17
2019-03-05T08:00:26.092Z,98968.92
2019-03-05T08:03:11.949Z,98973.25
2019-03-05T08:05:58.553Z,98980.67
2019-03-05T08:09:20.914Z,98969.52
2019-03-05T08:12:24.315Z,98995.22
2019-03-05T08:15:18.734Z,98984.16
2019-03-05T08:18:04.802Z,98984.23
2019-03-05T08:20:51.419Z,98992.31
2019-03-05T08:23:40.648Z,98999.09
2019-03-05T08:26:28.489Z,98995.63
2019-03-05T08:29:18.185Z,99003.39
2019-03-05T08:32:04.249Z,99009.52
2019-03-05T08:34:53.477Z,99023.13
2019-03-05T08:37:40.770Z,99023.70
2019-03-05T08:40:26.948Z,99021.89
2019-03-05T08:43:13.031Z,99033.17
2019-03-05T08:45:59.692Z,99030.22
2019-03-05T08:48:45.923Z,99040.34
2019-03-05T08:51:31.940Z,99045.17
2019-03-05T08:54:18.831Z,99041.44
2019-03-05T08:57:04.904Z,99042.27
2019-03-05T08:59:50.749Z,99061.19
2019-03-05T09:02:48.026Z,99057.00
2019-03-05T09:05:27.383Z,99059.24
2019-03-05T09:08:17.394Z,99067.78
2019-03-05T09:11:03.912Z,99062.25
2019-03-05T09:13:52.226Z,99063.13
2019-03-05T09:16:38.481Z,99074.33
2019-03-05T09:19:26.032Z,99071.96
2019-03-05T09:22:12.627Z,99077.07
2019-03-05T09:24:58.651Z,99072.53
2019-03-05T09:27:44.890Z,99076.61
2019-03-05T09:30:31.140Z,99073.17
2019-03-05T09:33:19.319Z,99077.42
2019-03-05T09:36:05.949Z,99080.25
2019-03-05T09:38:57.424Z,99089.48
2019-03-05T09:41:43.420Z,99084.26
2019-03-05T09:44:29.541Z,99097.70
2019-03-05T09:47:15.600Z,99100.27
2019-03-05T09:50:02.001Z,99095.88
2019-03-05T09:52:54.900Z,99097.09
2019-03-05T09:55:38.758Z,99102.37
2019-03-05T09:58:27.837Z,99116.81
2019-03-05T10:01:13.914Z,99116.98
2019-03-05T10:03:59.737Z,99117.66
2019-03-05T10:06:46.121Z,99123.05
2019-03-05T10:09:34.223Z,99125.39
2019-03-05T10:12:20.500Z,99125.90
2019-03-05T10:15:13.552Z,99130.48
2019-03-05T10:17:59.731Z,99120.51
2019-03-05T10:20:49.313Z,99129.75
2019-03-05T10:23:35.307Z,99127.83
2019-03-05T10:26:23.609Z,99138.06
2019-03-05T10:29:09.894Z,99132.37
2019-03-05T10:31:55.875Z,99130.44
2019-03-05T10:34:42.109Z,99134.31
2019-03-05T10:37:28.837Z,99134.88
2019-03-05T10:40:17.357Z,99137.23
2019-03-05T10:43:08.860Z,99141.94
2019-03-05T10:45:54.192Z,99148.91
2019-03-05T10:48:43.372Z,99141.75
2019-03-05T10:51:29.733Z,99146.30
2019-03-05T10:54:16.281Z,99145.26
2019-03-05T10:57:02.438Z,99148.75
2019-03-05T10:59:49.021Z,99152.73
2019-03-05T11:02:35.991Z,99154.30
2019-03-05T11:05:24.682Z,99161.48
2019-03-05T11:08:16.330Z,99161.47
2019-03-05T11:11:12.923Z,99163.28
2019-03-05T11:16:57.705Z,99157.72
2019-03-05T11:19:46.165Z,99161.48
2019-03-05T11:22:32.626Z,99173.89
2019-03-05T11:25:22.798Z,99167.34
2019-03-05T11:28:09.081Z,99177.53
2019-03-05T11:30:56.055Z,99179.67
2019-03-05T11:33:43.251Z,99186.11
2019-03-05T11:36:29.917Z,99181.55
2019-03-05T11:39:16.399Z,99186.37
2019-03-05T11:42:02.913Z,99182.77
2019-03-05T11:44:58.990Z,99191.73
2019-03-05T11:47:37.238Z,99195.33
2019-03-05T11:50:24.928Z,99194.05
2019-03-05T11:53:16.018Z,99203.03
2019-03-05T11:56:02.329Z,99204.52
2019-03-05T11:58:50.491Z,99199.89
2019-03-05T12:01:40.634Z,99202.58
2019-03-05T12:04:26.722Z,99204.95
2019-03-05T12:07:13.065Z,99208.22
2019-03-05T12:09:59.490Z,99221.00
2019-03-05T12:12:45.550Z,99214.61
2019-03-05T12:15:34.183Z,99216.95
2019-03-05T12:18:22.402Z,99223.62
2019-03-05T12:21:11.522Z,99220.01
2019-03-05T12:23:57.779Z,99220.47
2019-03-05T12:26:44.438Z,99225.05
2019-03-05T12:29:30.520Z,99223.37
2019-03-05T12:32:17.653Z,99228.88
2019-03-05T12:35:04.621Z,99231.84
2019-03-05T12:37:50.980Z,99235.02
2019-03-05T12:40:37.670Z,99238.95
2019-03-05T12:43:24.226Z,99237.46
2019-03-05T12:46:10.842Z,99237.10
2019-03-05T12:49:00.289Z,99240.00
2019-03-05T12:51:50.034Z,99247.48
2019-03-05T12:54:39.768Z,99234.59
2019-03-05T12:57:26.106Z,99249.77
2019-03-05T13:00:21.020Z,99255.72
2019-03-05T13:03:07.290Z,99248.97
2019-03-05T13:05:54.008Z,99257.09
2019-03-05T13:08:40.524Z,99256.81
2019-03-05T13:11:26.482Z,99257.88
2019-03-05T13:14:13.097Z,99251.84
2019-03-05T13:17:01.870Z,99260.70
2019-03-05T13:19:48.942Z,99259.73
2019-03-05T13:22:35.160Z,99267.28
2019-03-05T13:25:24.300Z,99260.97
2019-03-05T13:28:10.509Z,99269.16
2019-03-05T13:31:05.105Z,99263.03
2019-03-05T13:33:48.816Z,99268.30
2019-03-05T13:36:36.644Z,99270.82
2019-03-05T13:39:23.856Z,99279.34
2019-03-05T13:42:10.090Z,99268.99
2019-03-05T13:44:57.271Z,99269.43
2019-03-05T13:47:47.496Z,99281.08
2019-03-05T13:51:10.028Z,99281.11
2019-03-05T13:54:48.502Z,99288.80
2019-03-05T13:58:16.203Z,99280.52
2019-03-05T14:01:04.763Z,99281.97
2019-03-05T14:04:05.721Z,99282.50
2019-03-05T14:07:42.038Z,99285.72
2019-03-05T14:10:28.273Z,99290.97
2019-03-05T14:13:14.716Z,99299.13
2019-03-05T14:16:01.530Z,99301.72
2019-03-05T14:18:50.165Z,99313.32
2019-03-05T14:21:36.910Z,99297.28
2019-03-05T14:24:22.860Z,99294.44
2019-03-05T14:27:14.238Z,99292.45
2019-03-05T14:30:03.267Z,99289.79
2019-03-05T14:32:50.936Z,99295.05
2019-03-05T14:35:37.083Z,99302.20
2019-03-05T14:38:26.173Z,99297.38
2019-03-05T14:41:12.565Z,99301.97
2019-03-05T14:43:58.793Z,99316.32
2019-03-05T14:46:53.464Z,99312.86
2019-03-05T14:49:41.260Z,99318.56
2019-03-05T14:52:29.042Z,99313.64
2019-03-05T14:55:17.064Z,99322.11
2019-03-05T14:58:03.739Z,99324.92
2019-03-05T15:00:52.785Z,99324.18
2019-03-05T15:03:39.384Z,99323.06
2019-03-05T15:06:27.180Z,99320.22
2019-03-05T15:09:13.795Z,99326.34
2019-03-05T15:12:00.379Z,99320.10
2019-03-05T15:14:49.717Z,99318.08
2019-03-05T15:17:36.800Z,99321.39
2019-03-05T15:20:23.227Z,99329.87
2019-03-05T15:23:10.653Z,99323.62
2019-03-05T15:25:57.017Z,99331.17
2019-03-05T15:28:55.433Z,99338.70
2019-03-05T15:31:32.095Z,99340.28
2019-03-05T15:34:18.111Z,99339.82
2019-03-05T15:37:06.673Z,99345.75
2019-03-05T15:39:55.086Z,99343.77
2019-03-05T15:42:51.224Z,99347.95
2019-03-05T15:45:48.498Z,99356.30
2019-03-05T15:48:36.454Z,99357.82
2019-03-05T15:51:22.698Z,99359.73
2019-03-05T15:54:08.822Z,99364.84
2019-03-05T15:56:57.491Z,99370.55
2019-03-05T15:59:54.640Z,99376.21
2019-03-05T16:02:41.050Z,99375.44
2019-03-05T16:05:30.206Z,99364.64
2019-03-05T16:08:25.187Z,99374.54
2019-03-05T16:11:11.492Z,99369.71
2019-03-05T16:14:04.178Z,99374.20
2019-03-05T16:16:57.050Z,99373.73
2019-03-05T16:19:43.041Z,99374.81
2019-03-05T16:22:30.778Z,99377.83
2019-03-05T16:25:17.088Z,99375.25
2019-03-05T16:28:06.387Z,99378.91
2019-03-05T16:31:21.881Z,99373.11
2019-03-05T16:34:14.331Z,99383.83
2019-03-05T16:37:14.593Z,99398.09
2019-03-05T16:40:10.388Z,99400.70
2019-03-05T16:43:11.234Z,99408.38
2019-03-05T16:46:05.130Z,99405.45
2019-03-05T16:49:27.201Z,99408.89
2019-03-05T16:52:30.101Z,99406.05
2019-03-05T16:55:28.798Z,99406.53
2019-03-05T16:58:55.388Z,99414.16
2019-03-05T17:02:10.381Z,99423.52
2019-03-05T17:05:12.465Z,99424.80
2019-03-05T17:08:18.651Z,99431.30
2019-03-05T17:11:15.333Z,99436.87
2019-03-05T17:14:04.505Z,99442.14
2019-03-05T17:16:53.667Z,99450.04
2019-03-05T17:23:12.003Z,99454.74
2019-03-05T17:26:01.080Z,99455.91
2019-03-05T17:28:46.906Z,99462.00
2019-03-05T17:31:33.169Z,99474.11
2019-03-05T17:34:21.390Z,99469.53
2019-03-05T17:37:07.428Z,99481.09
2019-03-05T17:39:54.832Z,99489.83
2019-03-05T17:42:40.852Z,99488.86
2019-03-05T17:45:29.421Z,99496.20
2019-03-05T17:48:19.282Z,99501.50
2019-03-05T17:51:05.640Z,99506.30
2019-03-05T17:53:53.519Z,99508.39
2019-03-05T17:56:39.996Z,99516.56
2019-03-05T17:59:32.984Z,99513.24
2019-03-05T18:02:22.196Z,99514.80
2019-03-05T18:05:11.532Z,99516.16
2019-03-05T18:08:00.964Z,99522.56
2019-03-05T18:10:48.950Z,99519.67
2019-03-05T18:13:38.349Z,99530.75
2019-03-05T18:16:24.498Z,99526.54
2019-03-05T18:19:16.789Z,99541.20
2019-03-05T18:22:04.632Z,99537.84
2019-03-05T18:24:52.892Z,99549.63
2019-03-05T18:27:40.293Z,99558.18
2019-03-05T18:30:26.636Z,99563.18
2019-03-05T18:33:13.608Z,99560.22
2019-03-05T18:36:00.561Z,99569.29
2019-03-05T18:38:46.967Z,99573.08
2019-03-05T18:41:33.595Z,99564.53
2019-03-05T18:44:20.198Z,99566.30
2019-03-05T18:47:07.574Z,99567.59
2019-03-05T18:49:53.654Z,99573.51
2019-03-05T18:52:39.975Z,99563.34
2019-03-05T18:55:26.062Z,99573.20
2019-03-05T18:58:12.515Z,99573.59
2019-03-05T19:01:00.561Z,99574.45
2019-03-05T19:03:46.929Z,99573.82
2019-03-05T19:06:36.090Z,99576.56
2019-03-05T19:09:22.476Z,99576.47
2019-03-05T19:12:08.537Z,99578.30
2019-03-05T19:14:58.554Z,99581.73
2019-03-05T19:17:45.245Z,99583.44
2019-03-05T19:20:31.955Z,99582.57
2019-03-05T19:23:21.866Z,99584.19
2019-03-05T19:26:13.191Z,99588.58
2019-03-05T19:28:59.396Z,99590.61
2019-03-05T19:31:50.564Z,99592.63
2019-03-05T19:34:37.201Z,99593.20
2019-03-05T19:37:27.215Z,99598.02
2019-03-05T19:40:17.043Z,99602.73
2019-03-05T19:43:04.484Z,99607.82
2019-03-05T19:45:50.785Z,99599.65
2019-03-05T19:48:37.064Z,99598.36
2019-03-05T19:51:23.487Z,99608.59
2019-03-05T19:54:13.453Z,99611.63
2019-03-05T19:57:00.362Z,99609.91
2019-03-05T19:59:46.926Z,99610.76
2019-03-05T20:02:33.916Z,99605.64
2019-03-05T20:05:21.787Z,99617.19
2019-03-05T20:08:10.638Z,99620.97
2019-03-05T20:10:57.286Z,99615.95
2019-03-05T20:13:46.689Z,99616.01
2019-03-05T20:16:33.508Z,99619.02
2019-03-05T20:19:20.074Z,99616.45
2019-03-05T20:22:06.632Z,99621.19
2019-03-05T20:24:53.715Z,99620.78
2019-03-05T20:27:39.834Z,99622.05
2019-03-05T20:30:26.354Z,99626.77
2019-03-05T20:33:16.178Z,99625.50
2019-03-05T20:36:02.740Z,99630.71
2019-03-05T20:38:52.149Z,99636.19
2019-03-05T20:41:38.997Z,99635.00
2019-03-05T20:44:25.854Z,99633.70
2019-03-05T20:47:12.213Z,99637.13
2019-03-05T20:49:58.704Z,99643.49
2019-03-05T20:52:45.119Z,99634.98
2019-03-05T20:55:31.472Z,99642.70
2019-03-05T20:58:18.839Z,99634.13
2019-03-05T21:01:09.426Z,99635.44
2019-03-05T21:03:55.498Z,99639.30
2019-03-05T21:06:41.947Z,99643.55
2019-03-05T21:09:30.647Z,99638.00
2019-03-05T21:12:21.965Z,99651.69
2019-03-05T21:15:10.798Z,99647.05
2019-03-05T21:17:58.351Z,99650.86
2019-03-05T21:20:48.283Z,99652.19
2019-03-05T21:23:35.229Z,99656.48
2019-03-05T21:26:23.365Z,99656.92
2019-03-05T21:29:13.210Z,99654.81
2019-03-05T21:32:04.274Z,99659.53
2019-03-05T21:34:56.087Z,99659.92
2019-03-05T21:37:44.765Z,99662.95
2019-03-05T21:40:36.473Z,99665.95
2019-03-05T21:43:22.718Z,99663.39
2019-03-05T21:46:17.741Z,99663.81
2019-03-05T21:49:03.857Z,99657.82
2019-03-05T21:51:50.436Z,99661.25
2019-03-05T21:54:39.113Z,99666.42
2019-03-05T21:57:25.388Z,99672.84
2019-03-05T22:00:14.512Z,99674.52
2019-03-05T22:03:01.225Z,99673.69
2019-03-05T22:05:49.867Z,99670.70
2019-03-05T22:08:36.036Z,99668.98
2019-03-05T22:11:26.112Z,99666.38
2019-03-05T22:14:12.767Z,99663.42
2019-03-05T22:17:01.697Z,99669.84
2019-03-05T22:19:48.110Z,99674.15
2019-03-05T22:22:34.541Z,99680.55
2019-03-05T22:25:20.545Z,99684.39
2019-03-05T22:28:07.029Z,99686.13
2019-03-05T22:30:54.423Z,99685.70
2019-03-05T22:33:40.493Z,99690.38
2019-03-05T22:36:26.988Z,99680.99
2019-03-05T22:39:17.874Z,99685.67
2019-03-05T22:42:04.529Z,99683.95
2019-03-05T22:44:50.642Z,99682.27
2019-03-05T22:47:38.157Z,99677.56
2019-03-05T22:50:24.211Z,99683.98
2019-03-05T22:53:12.989Z,99677.56
2019-03-05T22:56:01.410Z,99680.13
2019-03-05T22:58:49.971Z,99684.84
2019-03-05T23:01:38.738Z,99681.84
2019-03-05T23:04:30.849Z,99671.56
2019-03-05T23:07:17.104Z,99678.84
2019-03-05T23:10:05.757Z,99679.69
2019-03-05T23:12:52.378Z,99681.42
2019-03-05T23:15:39.257Z,99681.83
2019-03-05T23:18:26.094Z,99677.56
2019-03-05T23:21:15.577Z,99677.14
2019-03-05T23:24:01.638Z,99677.14
2019-03-05T23:26:48.061Z,99672.86
2019-03-05T23:29:46.119Z,99671.13
2019-03-05T23:32:32.305Z,99668.11
2019-03-05T23:35:20.043Z,99668.54
2019-03-05T23:38:06.209Z,99669.39
2019-03-05T23:40:52.541Z,99669.41
2019-03-05T23:43:39.170Z,99662.95
2019-03-05T23:46:27.782Z,99665.97
2019-03-05T23:49:14.058Z,99662.11
2019-03-05T23:52:00.395Z,99665.11
2019-03-05T23:54:46.824Z,99657.43
2019-03-05T23:57:32.665Z,99651.43
